createdAt,value
2023-02-19T00:01:48.533Z,14.43
2023-02-19T00:04:22.156Z,12.87
2023-02-19T00:06:53.625Z,12.62
2023-02-19T00:09:24.664Z,13.49
2023-02-19T00:11:55.630Z,14.20
2023-02-19T00:14:26.548Z,13.56
2023-02-19T00:16:57.230Z,12.23
2023-02-19T00:19:28.075Z,13.36
2023-02-19T00:21:59.259Z,13.94
2023-02-19T00:24:30.196Z,13.95
2023-02-19T00:27:01.345Z,13.91
2023-02-19T00:29:32.332Z,14.12
2023-02-19T00:32:03.299Z,13.18
2023-02-19T00:34:34.296Z,12.97
2023-02-19T00:37:05.195Z,13.32
2023-02-19T00:39:35.835Z,13.79
2023-02-19T00:42:07.009Z,14.22
2023-02-19T00:44:37.805Z,12.81
2023-02-19T00:47:08.754Z,11.95
2023-02-19T00:49:43.063Z,13.10
2023-02-19T00:52:13.861Z,13.08
2023-02-19T00:54:44.628Z,13.91
2023-02-19T00:57:15.669Z,13.83
2023-02-19T00:59:46.499Z,13.51
2023-02-19T01:02:19.083Z,14.34
2023-02-19T01:04:50.307Z,12.75
2023-02-19T01:07:21.254Z,12.50
2023-02-19T01:09:52.705Z,13.14
2023-02-19T01:12:25.912Z,12.91
2023-02-19T01:14:55.298Z,13.87
2023-02-19T01:17:25.857Z,13.78
2023-02-19T01:19:56.661Z,14.18
2023-02-19T01:22:27.711Z,12.79
2023-02-19T01:24:59.668Z,11.73
2023-02-19T01:27:30.502Z,13.16
2023-02-19T01:30:02.703Z,13.60
2023-02-19T01:32:33.638Z,13.31
2023-02-19T01:35:05.092Z,12.45
2023-02-19T01:37:36.203Z,12.48
2023-02-19T01:40:07.821Z,13.58
2023-02-19T01:42:38.688Z,13.62
2023-02-19T01:45:26.111Z,13.32
2023-02-19T01:48:00.637Z,11.78
2023-02-19T01:50:32.497Z,12.49
2023-02-19T01:53:05.658Z,13.23
2023-02-19T01:55:37.184Z,14.00
2023-02-19T01:58:10.064Z,13.62
2023-02-19T02:00:42.436Z,13.62
2023-02-19T02:03:13.709Z,12.32
2023-02-19T02:05:46.587Z,13.05
2023-02-19T02:08:33.643Z,13.02
2023-02-19T02:11:05.308Z,12.52
2023-02-19T02:13:36.542Z,12.76
2023-02-19T02:16:12.271Z,13.63
2023-02-19T02:18:45.997Z,13.98
2023-02-19T02:21:33.457Z,13.70
2023-02-19T02:24:19.733Z,13.53
2023-02-19T02:27:07.967Z,13.99
2023-02-19T02:30:06.567Z,13.39
2023-02-19T02:32:41.338Z,12.79
2023-02-19T02:35:13.499Z,13.22
2023-02-19T02:37:46.830Z,13.28
2023-02-19T02:40:18.555Z,13.50
2023-02-19T02:42:50.030Z,13.92
2023-02-19T02:45:39.961Z,13.62
2023-02-19T02:48:38.629Z,12.89
2023-02-19T02:51:12.675Z,13.69
2023-02-19T02:54:08.853Z,13.96
2023-02-19T02:56:41.810Z,14.34
2023-02-19T02:59:14.871Z,13.26
2023-02-19T03:02:05.527Z,12.42
2023-02-19T03:05:00.017Z,12.75
2023-02-19T03:07:34.540Z,12.96
2023-02-19T03:10:06.910Z,12.33
2023-02-19T03:12:56.603Z,13.63
2023-02-19T03:15:46.404Z,14.49
2023-02-19T03:18:35.524Z,12.89
2023-02-19T03:21:08.435Z,12.74
2023-02-19T03:24:01.217Z,13.04
2023-02-19T03:26:33.370Z,13.85
2023-02-19T03:29:21.959Z,13.80
2023-02-19T03:31:56.737Z,13.56
2023-02-19T03:34:34.500Z,13.92
2023-02-19T03:37:03.458Z,13.89
2023-02-19T03:39:44.588Z,13.12
2023-02-19T03:42:20.837Z,13.51
2023-02-19T03:44:59.845Z,13.60
2023-02-19T03:47:31.616Z,13.70
2023-02-19T03:50:06.153Z,13.56
2023-02-19T03:52:40.968Z,12.65
2023-02-19T03:55:13.729Z,13.83
2023-02-19T03:57:43.977Z,13.29
2023-02-19T04:00:18.166Z,13.53
2023-02-19T04:02:51.687Z,13.78
2023-02-19T04:05:24.242Z,13.75
2023-02-19T04:07:58.414Z,13.64
2023-02-19T04:10:33.350Z,13.08
2023-02-19T04:13:10.400Z,13.14
2023-02-19T04:15:43.116Z,12.92
2023-02-19T04:18:15.787Z,12.92
2023-02-19T04:20:47.892Z,13.86
2023-02-19T04:23:20.762Z,14.08
2023-02-19T04:25:53.908Z,13.10
2023-02-19T04:28:24.722Z,13.26
2023-02-19T04:30:56.845Z,13.76
2023-02-19T04:33:27.625Z,13.15
2023-02-19T04:35:58.456Z,13.79
2023-02-19T04:38:29.291Z,13.59
2023-02-19T04:41:00.760Z,13.81
2023-02-19T04:43:31.484Z,13.23
2023-02-19T04:46:03.240Z,13.13
2023-02-19T04:48:33.961Z,13.08
2023-02-19T04:51:07.953Z,13.33
2023-02-19T04:53:38.933Z,13.26
2023-02-19T04:56:10.901Z,12.90
2023-02-19T04:58:42.159Z,12.35
2023-02-19T05:01:14.156Z,12.83
2023-02-19T05:03:45.116Z,13.10
2023-02-19T05:06:16.404Z,13.43
2023-02-19T05:08:47.031Z,12.48
2023-02-19T05:11:18.444Z,12.27
2023-02-19T05:13:49.173Z,12.73
2023-02-19T05:16:20.177Z,12.82
2023-02-19T05:18:51.604Z,12.63
2023-02-19T05:21:22.794Z,12.90
2023-02-19T05:23:53.461Z,12.98
2023-02-19T05:26:25.092Z,13.63
2023-02-19T05:28:55.840Z,13.21
2023-02-19T05:31:26.918Z,13.54
2023-02-19T05:33:58.012Z,13.25
2023-02-19T05:36:29.180Z,13.16
2023-02-19T05:39:00.147Z,13.36
2023-02-19T05:41:32.061Z,13.17
2023-02-19T05:44:02.785Z,13.47
2023-02-19T05:46:33.933Z,13.59
2023-02-19T05:49:04.662Z,13.40
2023-02-19T05:51:35.823Z,13.24
2023-02-19T05:54:06.874Z,12.95
2023-02-19T05:56:38.488Z,13.16
2023-02-19T05:59:15.498Z,13.61
2023-02-19T06:01:46.823Z,12.95
2023-02-19T06:04:19.615Z,12.96
2023-02-19T06:06:50.821Z,13.49
2023-02-19T06:09:21.695Z,12.92
2023-02-19T06:11:53.134Z,12.41
2023-02-19T06:14:23.581Z,12.42
2023-02-19T06:16:55.086Z,13.34
2023-02-19T06:19:25.949Z,13.76
2023-02-19T06:21:57.070Z,13.28
2023-02-19T06:24:27.628Z,13.30
2023-02-19T06:27:01.740Z,13.58
2023-02-19T06:29:32.952Z,13.99
2023-02-19T06:32:04.258Z,12.96
2023-02-19T06:34:35.200Z,13.60
2023-02-19T06:37:06.254Z,13.73
2023-02-19T06:39:36.939Z,13.41
2023-02-19T06:42:08.704Z,13.46
2023-02-19T06:44:39.313Z,13.59
2023-02-19T06:47:10.369Z,14.04
2023-02-19T06:49:42.214Z,13.60
2023-02-19T06:52:13.587Z,13.61
2023-02-19T06:54:44.155Z,12.93
2023-02-19T06:57:15.263Z,13.55
2023-02-19T06:59:46.026Z,13.80
2023-02-19T07:02:16.830Z,13.99
2023-02-19T07:04:47.674Z,13.87
2023-02-19T07:07:18.795Z,13.39
2023-02-19T07:09:49.426Z,14.11
2023-02-19T07:12:20.753Z,14.20
2023-02-19T07:14:51.195Z,14.30
2023-02-19T07:17:22.571Z,13.86
2023-02-19T07:19:53.273Z,13.53
2023-02-19T07:22:24.737Z,13.44
2023-02-19T07:24:55.826Z,12.89
2023-02-19T07:27:27.019Z,13.82
2023-02-19T07:29:58.060Z,13.76
2023-02-19T07:32:30.130Z,13.37
2023-02-19T07:35:00.674Z,12.91
2023-02-19T07:37:31.715Z,13.21
2023-02-19T07:40:02.786Z,13.38
2023-02-19T07:42:34.584Z,14.06
2023-02-19T07:45:05.520Z,14.01
2023-02-19T07:47:36.664Z,13.85
2023-02-19T07:50:08.072Z,13.54
2023-02-19T07:52:39.160Z,13.44
2023-02-19T07:55:10.006Z,14.02
2023-02-19T07:57:41.657Z,14.05
2023-02-19T08:00:13.558Z,13.82
2023-02-19T08:03:03.359Z,14.58
2023-02-19T08:05:35.761Z,14.53
2023-02-19T08:08:07.110Z,14.63
2023-02-19T08:10:55.523Z,14.02
2023-02-19T08:13:27.111Z,13.66
2023-02-19T08:16:20.159Z,14.13
2023-02-19T08:18:55.550Z,14.30
2023-02-19T08:21:26.347Z,13.71
2023-02-19T08:23:57.604Z,13.60
2023-02-19T08:26:28.545Z,13.75
2023-02-19T08:28:59.500Z,14.13
2023-02-19T08:31:30.378Z,14.55
2023-02-19T08:34:01.583Z,14.40
2023-02-19T08:36:32.531Z,13.72
2023-02-19T08:39:05.551Z,14.51
2023-02-19T08:41:36.507Z,14.18
2023-02-19T08:44:07.680Z,14.42
2023-02-19T08:46:39.514Z,13.80
2023-02-19T08:49:10.802Z,14.43
2023-02-19T08:51:41.697Z,13.98
2023-02-19T08:54:13.057Z,14.08
2023-02-19T08:56:43.724Z,14.38
2023-02-19T08:59:14.934Z,13.38
2023-02-19T09:01:45.541Z,13.63
2023-02-19T09:04:16.939Z,13.93
2023-02-19T09:06:47.572Z,14.55
2023-02-19T09:09:18.629Z,14.25
2023-02-19T09:11:49.372Z,14.23
2023-02-19T09:14:20.800Z,14.37
2023-02-19T09:16:51.240Z,14.12
2023-02-19T09:19:22.076Z,14.20
2023-02-19T09:21:52.845Z,14.37
2023-02-19T09:24:24.560Z,13.76
2023-02-19T09:26:56.291Z,14.46
2023-02-19T09:29:27.821Z,14.96
2023-02-19T09:31:59.598Z,14.49
2023-02-19T09:34:30.775Z,15.06
2023-02-19T09:37:01.652Z,14.63
2023-02-19T09:39:33.710Z,14.35
2023-02-19T09:42:05.828Z,14.70
2023-02-19T09:44:39.578Z,14.55
2023-02-19T09:47:14.965Z,13.69
2023-02-19T09:49:50.392Z,14.59
2023-02-19T09:52:26.029Z,14.62
2023-02-19T09:54:59.761Z,12.84
2023-02-19T09:57:32.171Z,12.90
2023-02-19T10:00:08.585Z,13.08
2023-02-19T10:02:41.130Z,12.88
2023-02-19T10:05:14.048Z,13.13
2023-02-19T10:07:46.122Z,13.01
2023-02-19T10:10:24.425Z,12.98
2023-02-19T10:12:57.113Z,13.05
2023-02-19T10:15:30.793Z,13.11
2023-02-19T10:18:01.907Z,13.43
2023-02-19T10:20:33.997Z,13.60
2023-02-19T10:23:05.740Z,13.83
2023-02-19T10:25:37.945Z,14.18
2023-02-19T10:28:16.012Z,14.13
2023-02-19T10:30:50.440Z,14.09
2023-02-19T10:33:22.137Z,13.86
2023-02-19T10:35:57.694Z,13.67
2023-02-19T10:38:30.522Z,13.42
2023-02-19T10:41:06.309Z,13.57
2023-02-19T10:43:40.180Z,13.62
2023-02-19T10:46:18.224Z,13.68
2023-02-19T10:48:52.179Z,13.48
2023-02-19T10:51:31.461Z,13.34
2023-02-19T10:54:15.463Z,13.28
2023-02-19T10:56:44.772Z,13.66
2023-02-19T10:59:24.665Z,13.32
2023-02-19T11:02:00.005Z,11.84
2023-02-19T11:04:34.761Z,11.70
2023-02-19T11:07:11.099Z,11.88
2023-02-19T11:09:45.510Z,11.83
2023-02-19T11:12:24.563Z,11.66
2023-02-19T11:14:55.680Z,11.67
2023-02-19T11:17:27.950Z,11.66
2023-02-19T11:20:00.132Z,11.34
2023-02-19T11:22:35.303Z,11.44
2023-02-19T11:25:07.760Z,11.30
2023-02-19T11:27:54.787Z,11.45
2023-02-19T11:30:36.093Z,11.57
2023-02-19T11:33:22.326Z,11.50
2023-02-19T11:35:55.468Z,11.52
2023-02-19T11:38:26.263Z,11.41
2023-02-19T11:41:01.670Z,11.50
2023-02-19T11:43:41.610Z,11.23
2023-02-19T11:46:15.938Z,11.35
2023-02-19T11:48:56.326Z,11.45
2023-02-19T11:51:36.540Z,11.56
2023-02-19T11:54:15.709Z,11.69
2023-02-19T11:56:50.590Z,11.83
2023-02-19T11:59:24.793Z,11.89
2023-02-19T12:02:19.313Z,11.59
2023-02-19T12:05:01.880Z,11.51
2023-02-19T12:07:44.443Z,11.70
2023-02-19T12:10:18.533Z,12.18
2023-02-19T12:12:54.376Z,10.84
2023-02-19T12:15:32.500Z,10.71
2023-02-19T12:18:19.638Z,11.34
2023-02-19T12:20:56.722Z,11.61
2023-02-19T12:23:48.044Z,11.85
2023-02-19T12:26:22.173Z,11.98
2023-02-19T12:29:09.266Z,12.15
2023-02-19T12:31:51.297Z,10.86
2023-02-19T12:34:33.738Z,10.42
2023-02-19T12:37:13.185Z,11.21
2023-02-19T12:39:45.534Z,11.58
2023-02-19T12:42:21.614Z,10.12
2023-02-19T12:44:54.890Z,10.64
2023-02-19T12:47:23.976Z,9.96
2023-02-19T12:50:03.010Z,9.52
2023-02-19T12:52:36.835Z,10.28
2023-02-19T12:55:15.846Z,10.95
2023-02-19T12:57:47.091Z,10.86
2023-02-19T13:00:25.103Z,9.69
2023-02-19T13:02:59.882Z,10.01
2023-02-19T13:05:34.873Z,11.04
2023-02-19T13:08:06.928Z,11.03
2023-02-19T13:10:41.478Z,9.85
2023-02-19T13:13:15.388Z,10.25
2023-02-19T13:15:48.690Z,11.07
2023-02-19T13:18:20.823Z,11.53
2023-02-19T13:20:55.532Z,9.97
2023-02-19T13:23:47.163Z,10.47
2023-02-19T13:26:25.881Z,10.46
2023-02-19T13:29:01.732Z,9.52
2023-02-19T13:31:50.696Z,10.55
2023-02-19T13:34:25.779Z,10.00
2023-02-19T13:36:54.799Z,9.25
2023-02-19T13:39:27.538Z,10.39
2023-02-19T13:42:00.626Z,10.75
2023-02-19T13:44:33.239Z,9.50
2023-02-19T13:47:06.451Z,10.40
2023-02-19T13:49:43.580Z,10.45
2023-02-19T13:52:34.050Z,9.24
2023-02-19T13:55:18.793Z,9.97
2023-02-19T13:57:49.626Z,10.76
2023-02-19T14:00:42.885Z,11.36
2023-02-19T14:03:30.829Z,10.34
2023-02-19T14:06:02.821Z,9.13
2023-02-19T14:08:50.125Z,9.96
2023-02-19T14:11:40.815Z,9.89
2023-02-19T14:14:28.205Z,8.10
2023-02-19T14:17:04.922Z,8.61
2023-02-19T14:19:52.410Z,9.63
2023-02-19T14:22:40.125Z,8.39
2023-02-19T14:25:20.671Z,9.48
2023-02-19T14:27:53.138Z,10.24
2023-02-19T14:30:24.607Z,9.17
2023-02-19T14:33:09.790Z,8.74
2023-02-19T14:35:42.703Z,9.68
2023-02-19T14:38:16.511Z,10.42
2023-02-19T14:40:48.165Z,10.91
2023-02-19T14:43:20.948Z,10.02
2023-02-19T14:45:54.339Z,8.58
2023-02-19T14:48:27.403Z,9.21
2023-02-19T14:51:01.785Z,10.30
2023-02-19T14:53:34.532Z,10.03
2023-02-19T14:56:06.217Z,8.53
2023-02-19T14:58:37.120Z,9.02
2023-02-19T15:01:10.438Z,9.58
2023-02-19T15:03:42.325Z,8.57
2023-02-19T15:06:16.752Z,8.38
2023-02-19T15:08:48.892Z,8.89
2023-02-19T15:11:21.932Z,8.05
2023-02-19T15:13:55.965Z,8.75
2023-02-19T15:16:27.629Z,9.98
2023-02-19T15:18:59.483Z,8.73
2023-02-19T15:21:32.259Z,9.19
2023-02-19T15:24:04.628Z,10.06
2023-02-19T15:26:37.021Z,9.51
2023-02-19T15:29:11.748Z,7.91
2023-02-19T15:31:47.766Z,8.99
2023-02-19T15:34:19.812Z,9.37
2023-02-19T15:36:51.965Z,8.02
2023-02-19T15:39:24.713Z,8.67
2023-02-19T15:41:59.981Z,8.72
2023-02-19T15:44:34.217Z,8.61
2023-02-19T15:47:09.970Z,8.47
2023-02-19T15:49:45.114Z,7.95
2023-02-19T15:52:19.260Z,9.24
2023-02-19T15:54:52.959Z,8.55
2023-02-19T15:57:21.977Z,7.72
2023-02-19T15:59:54.833Z,9.03
2023-02-19T16:02:27.613Z,9.18
2023-02-19T16:05:02.231Z,7.79
2023-02-19T16:07:33.218Z,8.59
2023-02-19T16:10:08.926Z,8.39
2023-02-19T16:12:39.559Z,7.65
2023-02-19T16:15:15.264Z,8.42
2023-02-19T16:17:46.504Z,7.46
2023-02-19T16:20:19.221Z,8.41
2023-02-19T16:22:50.420Z,7.40
2023-02-19T16:25:26.179Z,8.27
2023-02-19T16:27:57.266Z,9.08
2023-02-19T16:30:34.250Z,8.22
2023-02-19T16:33:33.182Z,7.48
2023-02-19T16:36:33.676Z,8.86
2023-02-19T16:39:15.878Z,8.29
2023-02-19T16:42:13.046Z,7.02
2023-02-19T16:44:44.890Z,7.03
2023-02-19T16:47:27.614Z,8.36
2023-02-19T16:49:59.252Z,7.06
2023-02-19T16:52:30.720Z,7.17
2023-02-19T16:55:02.170Z,7.78
2023-02-19T16:57:33.499Z,6.88
2023-02-19T17:00:04.849Z,6.62
2023-02-19T17:02:36.069Z,8.08
2023-02-19T17:05:07.392Z,7.13
2023-02-19T17:07:38.687Z,6.13
2023-02-19T17:10:09.670Z,7.02
2023-02-19T17:12:40.845Z,7.74
2023-02-19T17:15:12.846Z,6.74
2023-02-19T17:17:43.807Z,6.13
2023-02-19T17:20:22.205Z,7.48
2023-02-19T17:22:53.121Z,8.38
2023-02-19T17:25:23.901Z,7.02
2023-02-19T17:27:55.861Z,6.01
2023-02-19T17:30:28.430Z,5.68
2023-02-19T17:32:59.744Z,7.52
2023-02-19T17:35:30.680Z,7.82
2023-02-19T17:38:01.934Z,6.57
2023-02-19T17:40:34.038Z,5.61
2023-02-19T17:43:07.892Z,6.50
2023-02-19T17:45:39.314Z,6.88
2023-02-19T17:48:13.134Z,5.98
2023-02-19T17:50:44.381Z,6.59
2023-02-19T17:53:15.292Z,7.75
2023-02-19T17:55:46.599Z,6.61
2023-02-19T17:58:18.339Z,5.65
2023-02-19T18:00:49.073Z,6.20
2023-02-19T18:03:21.101Z,6.14
2023-02-19T18:05:52.279Z,5.43
2023-02-19T18:08:23.850Z,6.13
2023-02-19T18:10:54.846Z,6.30
2023-02-19T18:13:26.079Z,5.39
2023-02-19T18:16:00.136Z,5.71
2023-02-19T18:18:32.453Z,7.14
2023-02-19T18:21:03.439Z,6.32
2023-02-19T18:23:34.987Z,5.37
2023-02-19T18:26:08.641Z,6.61
2023-02-19T18:28:41.943Z,6.84
2023-02-19T18:31:13.177Z,5.90
2023-02-19T18:33:45.395Z,5.55
2023-02-19T18:36:16.280Z,7.21
2023-02-19T18:38:47.481Z,6.36
2023-02-19T18:41:21.402Z,5.46
2023-02-19T18:43:53.341Z,6.75
2023-02-19T18:46:24.345Z,6.75
2023-02-19T18:48:55.916Z,5.68
2023-02-19T18:51:26.966Z,5.68
2023-02-19T18:53:58.836Z,7.43
2023-02-19T18:56:31.086Z,6.69
2023-02-19T18:59:05.015Z,5.68
2023-02-19T19:01:35.836Z,6.74
2023-02-19T19:04:07.527Z,6.38
2023-02-19T19:06:38.548Z,5.39
2023-02-19T19:09:09.836Z,5.54
2023-02-19T19:11:41.550Z,6.90
2023-02-19T19:14:13.800Z,6.64
2023-02-19T19:16:44.736Z,5.44
2023-02-19T19:19:16.013Z,5.92
2023-02-19T19:21:47.349Z,6.88
2023-02-19T19:24:18.405Z,6.20
2023-02-19T19:26:49.611Z,5.45
2023-02-19T19:29:22.532Z,6.59
2023-02-19T19:31:53.516Z,6.12
2023-02-19T19:34:25.149Z,5.73
2023-02-19T19:36:57.347Z,7.04
2023-02-19T19:39:28.585Z,6.89
2023-02-19T19:41:59.377Z,5.69
2023-02-19T19:44:30.804Z,6.59
2023-02-19T19:47:01.740Z,6.95
2023-02-19T19:49:33.607Z,5.93
2023-02-19T19:52:04.514Z,5.84
2023-02-19T19:54:35.688Z,7.19
2023-02-19T19:57:06.872Z,6.35
2023-02-19T19:59:39.749Z,5.82
2023-02-19T20:02:12.109Z,7.16
2023-02-19T20:04:44.714Z,6.58
2023-02-19T20:07:15.850Z,6.07
2023-02-19T20:09:49.756Z,7.13
2023-02-19T20:12:20.751Z,6.04
2023-02-19T20:14:52.218Z,6.27
2023-02-19T20:17:27.575Z,7.43
2023-02-19T20:19:58.780Z,6.65
2023-02-19T20:22:29.741Z,6.30
2023-02-19T20:25:01.120Z,7.53
2023-02-19T20:27:32.213Z,6.31
2023-02-19T20:30:05.530Z,5.85
2023-02-19T20:32:36.394Z,6.65
2023-02-19T20:35:08.193Z,7.31
2023-02-19T20:37:40.541Z,6.41
2023-02-19T20:40:12.735Z,5.50
2023-02-19T20:42:43.778Z,6.52
2023-02-19T20:45:16.816Z,7.36
2023-02-19T20:47:48.221Z,5.86
2023-02-19T20:50:20.146Z,6.01
2023-02-19T20:52:51.177Z,6.76
2023-02-19T20:55:22.024Z,7.71
2023-02-19T20:57:52.997Z,6.76
2023-02-19T21:00:25.009Z,5.69
2023-02-19T21:02:55.866Z,6.52
2023-02-19T21:05:27.540Z,7.71
2023-02-19T21:08:02.465Z,6.22
2023-02-19T21:10:38.048Z,5.98
2023-02-19T21:13:08.963Z,6.74
2023-02-19T21:15:45.210Z,5.79
2023-02-19T21:18:17.765Z,6.72
2023-02-19T21:20:48.734Z,6.75
2023-02-19T21:23:19.858Z,5.46
2023-02-19T21:25:52.498Z,6.20
2023-02-19T21:28:25.474Z,6.70
2023-02-19T21:30:56.752Z,5.30
2023-02-19T21:33:27.841Z,6.21
2023-02-19T21:35:59.078Z,7.33
2023-02-19T21:38:32.387Z,6.51
2023-02-19T21:41:03.509Z,5.68
2023-02-19T21:43:34.351Z,6.98
2023-02-19T21:46:05.474Z,6.01
2023-02-19T21:48:36.644Z,5.85
2023-02-19T21:51:08.062Z,7.25
2023-02-19T21:53:39.018Z,6.00
2023-02-19T21:56:10.619Z,5.73
2023-02-19T21:58:41.407Z,6.96
2023-02-19T22:01:12.275Z,5.91
2023-02-19T22:03:43.456Z,5.69
2023-02-19T22:06:14.494Z,6.98
2023-02-19T22:08:45.692Z,5.87
2023-02-19T22:11:16.706Z,5.93
2023-02-19T22:13:47.296Z,6.92
2023-02-19T22:16:18.332Z,7.26
2023-02-19T22:18:49.601Z,5.76
2023-02-19T22:21:21.288Z,5.72
2023-02-19T22:23:52.933Z,7.11
2023-02-19T22:26:25.198Z,6.30
2023-02-19T22:28:56.650Z,5.12
2023-02-19T22:31:28.728Z,5.52
2023-02-19T22:33:59.764Z,6.66
2023-02-19T22:36:31.782Z,6.97
2023-02-19T22:39:03.470Z,5.76
2023-02-19T22:41:34.329Z,5.32
2023-02-19T22:44:05.469Z,6.82
2023-02-19T22:46:36.875Z,6.00
2023-02-19T22:49:07.810Z,5.88
2023-02-19T22:51:38.679Z,6.56
2023-02-19T22:54:09.513Z,7.05
2023-02-19T22:56:40.219Z,5.76
2023-02-19T22:59:10.857Z,5.64
2023-02-19T23:01:41.830Z,6.30
2023-02-19T23:04:12.901Z,5.20
2023-02-19T23:06:44.684Z,6.39
2023-02-19T23:09:17.838Z,6.85
2023-02-19T23:11:48.513Z,5.29
2023-02-19T23:14:20.225Z,6.32
2023-02-19T23:16:50.948Z,7.01
2023-02-19T23:19:21.802Z,6.17
2023-02-19T23:21:52.985Z,5.86
2023-02-19T23:24:24.366Z,6.67
2023-02-19T23:26:56.058Z,5.50
2023-02-19T23:29:27.512Z,6.67
2023-02-19T23:31:58.929Z,6.21
2023-02-19T23:34:29.964Z,5.73
2023-02-19T23:37:00.788Z,6.82
2023-02-19T23:39:31.523Z,7.28
2023-02-19T23:42:02.464Z,5.69
2023-02-19T23:44:33.439Z,6.59
2023-02-19T23:47:04.327Z,6.27
2023-02-19T23:49:35.120Z,5.57
2023-02-19T23:52:06.412Z,6.95
2023-02-19T23:54:37.289Z,6.40
2023-02-19T23:57:08.296Z,5.46
2023-02-19T23:59:39.269Z,6.84
